NCAR-RAP Real-Time Weather Data

Output produced by METARs form (08 May 2021  15:23 UTC)
found at http://weather.rap.ucar.edu/surface/
 
KSYR 081454Z 20004KT 10SM BKN012 BKN017 OVC024 08/04 A2990 RMK AO2 SLP122 60000 T00780039 53006 $
KSYR 081408Z 24004KT 10SM BKN010 BKN017 OVC027 07/04 A2989 RMK AO2 T00720044 $
KSYR 081354Z VRB04KT 10SM FEW008 SCT013 OVC027 07/04 A2989 RMK AO2 DZE50 SLP119 P0000 T00720044 $
KSYR 081337Z 00000KT 10SM -DZ SCT008 BKN015 OVC027 07/04 A2988 RMK AO2 PCPN VRY LGT P0000 T00720044 $
KSYR 081254Z 25003KT 10SM -DZ BKN008 OVC028 06/04 A2988 RMK AO2 DZE26B54 SLP118 PCPN VRY LGT P0000 T00610039 $
KSYR 081244Z 26003KT 10SM BKN007 OVC028 06/04 A2988 RMK AO2 DZE26 P0000 T00610039 $
KSYR 081201Z 25004KT 10SM -DZ SCT007 OVC031 06/04 A2988 RMK AO2 P0000 T00560039 $
KSYR 081154Z 25004KT 10SM -DZ FEW007 OVC028 06/03 A2988 RMK AO2 SLP117 P0003 60034 70055 T00560033 10067 20044 51009 $
KSYR 081149Z 26004KT 8SM -DZ FEW007 OVC028 06/04 A2988 RMK AO2 P0003 $
KSYR 081054Z 25007KT 10SM -DZ BKN021 OVC037 05/03 A2987 RMK AO2 RAE37DZB37 SLP113 P0003 T00500028 $
KSYR 081040Z 25007KT 10SM -DZ BKN021 BKN031 OVC038 05/03 A2986 RMK AO2 RAE37DZB37 P0003 T00500028 $
KSYR 080954Z 25009KT 10SM -RA SCT009 OVC017 05/03 A2985 RMK AO2 SLP106 P0008 T00500028 $
KSYR 080943Z 26009KT 10SM -RA SCT009 OVC017 05/03 A2985 RMK AO2 P0007 T00500028 $
KSYR 080854Z 26011KT 9SM -RA BKN009 OVC015 06/03 A2983 RMK AO2 SLP100 P0009 60020 T00560033 56006 $
KSYR 080815Z 26007KT 8SM -RA BKN009 OVC013 06/04 A2983 RMK AO2 P0002 T00610039 $
KSYR 080754Z 26008KT 8SM -RA BKN007 OVC014 06/04 A2983 RMK AO2 DZE39RAB39 SLP100 P0008 T00610039 $
KSYR 080708Z 29007KT 6SM -DZ BR BKN007 OVC013 06/04 A2984 RMK AO2 P0001 T00610039 $
KSYR 080701Z 27007KT 6SM -DZ BR SCT007 OVC014 07/04 A2983 RMK AO2 CIG 007 NW T00670044 PNO
KSYR 080654Z 29007KT 9SM -DZ SCT007 OVC015 07/04 A2983 RMK AO2 SLP101 P0003 T00670044
KSYR 080647Z 30009KT 9SM -DZ SCT007 OVC016 07/04 A2983 RMK AO2 P0003 T00670044
KSYR 080554Z 31006KT 10SM -DZ FEW007 OVC025 07/04 A2985 RMK AO2 RAE50DZB50 SLP106 P0001 60018 T00670044 10072 20067 58016
KSYR 080454Z 32005KT 10SM -RA FEW005 BKN027 OVC043 07/04 A2987 RMK AO2 SLP112 P0001 T00670044 401390011
KSYR 080354Z 32005KT 10SM -RA FEW005 BKN027 OVC037 07/04 A2989 RMK AO2 SLP119 P0003 T00670044
KSYR 080254Z 33005KT 10SM -RA FEW007 BKN029 OVC045 07/04 A2990 RMK AO2 SLP123 P0005 60013 T00670044 58002
KSYR 080234Z 32005KT 7SM RA SCT007 BKN029 OVC037 07/05 A2990 RMK AO2 P0004 T00670050
KSYR 080154Z 36004KT 7SM -RA BKN007 OVC040 07/05 A2991 RMK AO2 SLP126 P0003 T00670050
KSYR 080054Z 34007KT 9SM -RA BKN007 OVC043 07/05 A2990 RMK AO2 SLP125 P0005 T00720050
KSYR 080047Z 34006KT 8SM -RA BKN007 OVC042 07/05 A2991 RMK AO2 P0004 T00720050
KSYR 072354Z 34006KT 7SM -RA FEW007 OVC044 07/05 A2990 RMK AO2 SLP126 P0002 60003 T00720050 10133 20072 50004
KSYR 072328Z 33010KT 10SM -RA FEW007 OVC049 08/06 A2991 RMK AO2 P0001 T00780056
KSYR 072254Z 34010KT 10SM -RA FEW015 OVC050 08/04 A2991 RMK AO2 SLP127 P0001 T00830044
KSYR 072154Z 32010KT 10SM -RA OVC055 10/04 A2991 RMK AO2 RAB01 SLP127 P0000 T01000044
KSYR 072054Z 32008KT 10SM OVC055 11/03 A2989 RMK AO2 SLP122 60000 T01110033 55002
KSYR 071954Z 35011KT 10SM FEW050 OVC090 12/03 A2989 RMK AO2 SLP118 T01170028
KSYR 071854Z 33010KT 10SM OVC050 13/03 A2989 RMK AO2 RAB34E53 SLP122 P0000 T01280028
KSYR 071754Z 34010KT 10SM OVC075 12/00 A2990 RMK AO2 SLP123 T01220000 10139 20061 56017
KSYR 071654Z 33011KT 10SM OVC075 12/M01 A2991 RMK AO2 SLP128 T01221006
KSYR 071554Z 36008KT 10SM FEW060 OVC090 13/00 A2993 RMK AO2 SLP134 T01330000
KSYR 071454Z 35006KT 10SM OVC090 12/01 A2995 RMK AO2 SLP140 T01220006 58009
KSYR 071354Z 31006KT 10SM OVC090 11/02 A2996 RMK AO2 SLP144 T01060017
KSYR 071254Z 00000KT 10SM BKN100 OVC220 08/01 A2997 RMK AO2 SLP148 T00830011
KSYR 071154Z 00000KT 10SM BKN100 OVC220 06/01 A2998 RMK AO2 SLP150 T00560006 10056 20011 53003
KSYR 071054Z 15004KT 10SM SCT100 BKN130 BKN200 03/M01 A2997 RMK AO2 SLP147 T00281011
KSYR 070954Z 10005KT 10SM SCT110 SCT130 BKN200 02/M01 A2996 RMK AO2 SLP145 T00221011
KSYR 070854Z COR 10004KT 10SM FEW110 SCT200 02/M02 A2997 RMK AO2 SLP146 T00221017 56007
KSYR 070754Z 13003KT 10SM SCT160 BKN200 03/M01 A2997 RMK AO2 SLP147 T00331011
KSYR 070654Z 13004KT 10SM FEW180 SCT200 04/M01 A2998 RMK AO2 SLP150 T00391011
KSYR 070554Z 12004KT 10SM SCT240 04/M01 A2999 RMK AO2 SLP153 T00391011 10106 20039 58006
KSYR 070454Z 13003KT 10SM FEW250 05/M01 A3001 RMK AO2 SLP159 T00501006 401440044
KSYR 070354Z 00000KT 10SM FEW250 06/M01 A3001 RMK AO2 SLP160 T00611011
KSYR 070254Z 00000KT 10SM FEW250 07/M01 A3001 RMK AO2 SLP160 T00671006 50002
KSYR 070154Z 00000KT 10SM FEW250 08/M02 A3001 RMK AO2 SLP162 T00831017
KSYR 070054Z 00000KT 10SM FEW250 09/M03 A3001 RMK AO2 SLP160 T00941028
KSYR 062354Z 32005KT 10SM FEW250 11/M03 A3000 RMK AO2 SLP158 T01061033 10144 20106 55001
KSYR 062254Z 31007KT 10SM FEW050 BKN200 13/M03 A2999 RMK AO2 SLP155 T01281033
KSYR 062154Z 33008KT 10SM FEW040 BKN190 13/M02 A3000 RMK AO2 SLP157 T01281022
KSYR 062054Z 32011G16KT 10SM FEW040 BKN190 BKN250 13/M02 A3000 RMK AO2 SLP157 T01331022 56009
KSYR 061954Z 30011G18KT 10SM FEW040 BKN250 14/M03 A3001 RMK AO2 SLP158 T01391033
KSYR 061854Z 31011G18KT 10SM FEW035 FEW180 BKN250 14/M04 A3002 RMK AO2 SLP164 T01391039
KSYR 061754Z 29010KT 270V340 10SM FEW035 FEW250 14/M03 A3003 RMK AO2 SLP167 T01391028 10139 20072 58010
KSYR 061654Z 34009G17KT 10SM FEW035 FEW250 13/M02 A3004 RMK AO2 SLP171 T01331022
KSYR 061554Z 31012G16KT 10SM FEW035 FEW250 12/M01 A3005 RMK AO2 SLP175 T01221006 $